Archival Weather

Snohomish County (Paine Fld)

Everett, Washington (KPAE)

Report from: Wednesday, November 15, 2023 5:53 PM PST
Current time: Friday, June 21, 2024 12:21 AM PDT

Current weather – Weather history – Daily summaries
Weather forecast

Temperature5.0°C (41.0°F)
Wind chill3.9°C (39.0°F)
Dew point2.8°C (37.0°F)
Winds 3 kts (1.5 m/s, 3.5 mph) North-Northwest (340°)
Visibility10 mi. (16.1 km)
Clouds Ceiling: Overcast 2,000 ft. (610 m)
Altimeter29.99 in.Hg (1016 mB)
Relative humidity86 %
Density altitude-1,195 ft. (-364 m)
Sea-level pressure101.6 kPa (1016 mB, 30.01 in.Hg)
Remarks Automated weather observing station with precipitation discriminator
Flight conditions Marginal Visual Meteorological Conditions
Raw dataKPAE 160153Z 34003KT 10SM OVC020 05/03 A2999 RMK AO2 SLP161 T00500028
An error has occurred. This application may no longer respond until reloaded. Reload 🗙